Time;durP1;ratioP1;P1;durP2;ratioP2;P2;SDS_P1;SDS_P2;PMS_P1;PMS_P2;Temp;Humidity;BMP_temperature;BMP_pressure;BME280_temperature;BME280_humidity;BME280_pressure;Samples;Min_cycle;Max_cycle;Signal;HPM_P1;HPM_P2
2021/03/10 05:46:37;;;;;;;34.08;17.83;;;;;;;;;;6195904;22;884283;-81
2021/03/10 05:49:04;;;;;;;38.33;18.02;;;;;;;;;;6275259;22;20402;-81
2021/03/10 05:53:50;;;;;;;32.80;17.85;;;;;;;;;;5119612;27;20921;-78
2021/03/10 05:56:16;;;;;;;33.50;18.77;;;;;;;;;;5112282;28;20061;-78
2021/03/10 05:58:41;;;;;;;42.08;21.67;;;;;;;;;;5115097;28;20020;-79
2021/03/10 06:01:07;;;;;;;35.75;19.60;;;;;;;;;;5113663;22;20139;-77
2021/03/10 06:03:33;;;;;;;37.35;19.80;;;;;;;;;;5088046;28;20032;-77
2021/03/10 06:06:03;;;;;;;33.30;17.80;;;;;;;;;;5103185;28;20020;-76
2021/03/10 06:08:34;;;;;;;38.35;20.63;;;;;;;;;;5074225;28;20585;-77
2021/03/10 06:11:00;;;;;;;36.85;19.17;;;;;;;;;;5090084;28;20118;-76
2021/03/10 06:13:30;;;;;;;38.10;19.77;;;;;;;;;;5083742;28;20487;-77
2021/03/10 06:15:57;;;;;;;40.55;21.70;;;;;;;;;;5084377;28;20028;-76
2021/03/10 06:18:23;;;;;;;46.15;24.10;;;;;;;;;;5102720;28;20023;-77
2021/03/10 06:20:49;;;;;;;36.10;20.83;;;;;;;;;;5094671;28;20041;-76
2021/03/10 06:23:16;;;;;;;38.65;20.60;;;;;;;;;;5107828;28;20011;-76
2021/03/10 06:25:41;;;;;;;34.15;18.83;;;;;;;;;;5110442;28;20028;-77
2021/03/10 06:28:07;;;;;;;39.00;19.40;;;;;;;;;;5107286;28;20498;-77
2021/03/10 06:30:43;;;;;;;37.20;19.58;;;;;;;;;;5109481;28;20015;-76
2021/03/10 06:33:09;;;;;;;40.70;20.55;;;;;;;;;;5105715;28;20027;-77
2021/03/10 06:35:36;;;;;;;36.80;20.17;;;;;;;;;;5099768;28;20017;-76
2021/03/10 06:38:06;;;;;;;34.83;18.63;;;;;;;;;;5082794;28;20027;-78
2021/03/10 06:40:32;;;;;;;46.20;23.52;;;;;;;;;;5108990;28;20018;-77
2021/03/10 06:42:58;;;;;;;45.03;22.77;;;;;;;;;;5088331;28;20443;-76
2021/03/10 06:45:33;;;;;;;41.53;21.23;;;;;;;;;;5095650;28;20550;-77
2021/03/10 06:47:59;;;;;;;40.47;21.92;;;;;;;;;;5089018;28;20027;-77
2021/03/10 06:50:34;;;;;;;38.22;22.25;;;;;;;;;;5105889;28;20023;-75
2021/03/10 06:53:00;;;;;;;41.40;22.45;;;;;;;;;;5083441;28;20392;-76
2021/03/10 06:55:36;;;;;;;41.75;22.35;;;;;;;;;;5101198;28;20049;-77
2021/03/10 06:58:01;;;;;;;42.88;22.60;;;;;;;;;;5101690;28;20372;-76
2021/03/10 07:00:27;;;;;;;44.60;23.45;;;;;;;;;;5087969;28;20035;-77
2021/03/10 07:02:53;;;;;;;56.25;27.30;;;;;;;;;;5100563;28;20114;-77
2021/03/10 07:05:19;;;;;;;46.35;24.77;;;;;;;;;;5086366;28;20035;-76
2021/03/10 07:10:04;;;;;;;48.95;26.13;;;;;;;;;;5101799;27;20347;-76
2021/03/10 07:12:30;;;;;;;49.67;25.35;;;;;;;;;;5085187;28;20068;-76
2021/03/10 07:14:55;;;;;;;57.55;28.27;;;;;;;;;;5080272;28;20111;-76
2021/03/10 07:17:25;;;;;;;111.57;49.97;;;;;;;;;;5085576;28;20020;-77
2021/03/10 07:19:51;;;;;;;112.80;53.25;;;;;;;;;;5077357;28;20029;-76
2021/03/10 07:22:37;;;;;;;99.32;51.30;;;;;;;;;;5076361;28;20020;-76
2021/03/10 07:25:08;;;;;;;96.40;47.53;;;;;;;;;;5084244;28;20051;-76
2021/03/10 07:27:50;;;;;;;70.82;34.75;;;;;;;;;;5087666;28;20074;-77
2021/03/10 07:30:16;;;;;;;53.25;28.65;;;;;;;;;;5083879;28;20155;-75
2021/03/10 07:32:42;;;;;;;46.88;23.50;;;;;;;;;;5084988;28;20059;-76
2021/03/10 07:35:11;;;;;;;44.90;25.25;;;;;;;;;;5081758;28;20452;-76
2021/03/10 07:37:38;;;;;;;45.67;25.67;;;;;;;;;;5080690;28;20024;-76
2021/03/10 07:40:12;;;;;;;57.33;30.65;;;;;;;;;;5081192;28;20686;-76
2021/03/10 07:42:50;;;;;;;52.95;27.80;;;;;;;;;;5082758;28;20040;-76
2021/03/10 07:45:16;;;;;;;70.97;37.17;;;;;;;;;;5075935;28;20028;-75
2021/03/10 07:47:50;;;;;;;73.10;37.95;;;;;;;;;;5085770;28;20024;-76
2021/03/10 07:50:16;;;;;;;72.32;39.78;;;;;;;;;;5081793;28;20024;-76
2021/03/10 07:52:52;;;;;;;80.00;39.55;;;;;;;;;;5086949;28;20546;-77
2021/03/10 07:55:18;;;;;;;76.70;40.80;;;;;;;;;;5078166;28;20470;-76
2021/03/10 07:57:50;;;;;;;61.53;33.13;;;;;;;;;;5082442;28;20016;-76
2021/03/10 08:00:16;;;;;;;59.53;34.50;;;;;;;;;;5080100;28;20043;-77
2021/03/10 08:02:47;;;;;;;61.75;33.17;;;;;;;;;;5080548;28;20385;-76
2021/03/10 08:05:39;;;;;;;61.95;32.38;;;;;;;;;;5080999;28;20027;-76
2021/03/10 08:08:08;;;;;;;51.60;27.88;;;;;;;;;;5079545;28;20097;-76
2021/03/10 08:10:34;;;;;;;55.55;29.92;;;;;;;;;;5082498;28;20085;-77
2021/03/10 08:13:00;;;;;;;54.45;30.65;;;;;;;;;;5076457;28;20025;-77
2021/03/10 08:15:26;;;;;;;54.10;27.42;;;;;;;;;;5083992;28;20105;-77
2021/03/10 08:18:02;;;;;;;54.55;30.48;;;;;;;;;;5079580;28;20108;-76
2021/03/10 08:20:37;;;;;;;57.90;30.45;;;;;;;;;;5067604;28;20025;-77
2021/03/10 08:23:03;;;;;;;57.70;31.33;;;;;;;;;;5064631;28;20426;-77
2021/03/10 08:25:30;;;;;;;57.08;32.10;;;;;;;;;;5060317;28;21579;-77
2021/03/10 08:27:55;;;;;;;53.53;31.13;;;;;;;;;;5066875;28;20082;-76
2021/03/10 08:30:22;;;;;;;48.92;27.77;;;;;;;;;;5070933;28;20422;-76
2021/03/10 08:32:48;;;;;;;57.10;31.77;;;;;;;;;;5060993;28;20056;-77
2021/03/10 08:35:15;;;;;;;46.17;26.45;;;;;;;;;;5063644;28;20036;-76
2021/03/10 08:37:51;;;;;;;52.45;27.98;;;;;;;;;;5065760;28;20016;-77
2021/03/10 08:40:18;;;;;;;53.95;29.15;;;;;;;;;;5066976;28;20439;-76
2021/03/10 08:42:44;;;;;;;55.03;30.08;;;;;;;;;;5067629;28;20028;-76
2021/03/10 08:45:18;;;;;;;51.13;28.48;;;;;;;;;;5067247;28;20020;-77
2021/03/10 08:47:54;;;;;;;54.55;29.42;;;;;;;;;;5067563;28;21457;-76
2021/03/10 08:50:20;;;;;;;50.15;29.23;;;;;;;;;;5069488;28;20032;-76
2021/03/10 08:52:46;;;;;;;56.38;29.45;;;;;;;;;;5069025;28;20021;-76
2021/03/10 08:55:12;;;;;;;49.25;29.33;;;;;;;;;;5063028;28;20020;-76
2021/03/10 08:57:37;;;;;;;53.08;30.10;;;;;;;;;;5057895;28;20082;-76
2021/03/10 09:00:14;;;;;;;49.47;28.60;;;;;;;;;;5059129;28;20043;-77
2021/03/10 09:02:40;;;;;;;58.08;33.67;;;;;;;;;;5061806;28;20067;-77
2021/03/10 09:05:07;;;;;;;50.67;29.40;;;;;;;;;;5061693;28;20382;-76
2021/03/10 09:07:33;;;;;;;52.45;31.02;;;;;;;;;;5061199;28;20028;-77
2021/03/10 09:10:00;;;;;;;52.10;30.70;;;;;;;;;;5066157;28;20070;-77
2021/03/10 09:12:29;;;;;;;47.78;29.52;;;;;;;;;;5065691;28;20028;-77
2021/03/10 09:14:55;;;;;;;51.72;29.05;;;;;;;;;;5052196;28;20477;-77
2021/03/10 09:17:31;;;;;;;52.38;28.65;;;;;;;;;;5060986;28;20068;-76
2021/03/10 09:19:59;;;;;;;45.25;27.98;;;;;;;;;;5058453;28;20117;-77
2021/03/10 09:22:25;;;;;;;44.53;27.73;;;;;;;;;;5061152;28;20589;-77
2021/03/10 09:25:04;;;;;;;48.55;29.20;;;;;;;;;;5058462;28;20045;-77
2021/03/10 09:27:30;;;;;;;46.33;27.50;;;;;;;;;;5060347;28;20036;-77
2021/03/10 09:29:57;;;;;;;48.95;29.88;;;;;;;;;;5054342;28;20031;-77
2021/03/10 09:32:23;;;;;;;49.00;27.85;;;;;;;;;;5049281;28;20051;-78
2021/03/10 09:34:50;;;;;;;45.63;26.45;;;;;;;;;;5049274;28;20058;-77
2021/03/10 09:37:17;;;;;;;45.33;27.40;;;;;;;;;;5060363;28;20427;-77
2021/03/10 09:39:52;;;;;;;52.85;28.65;;;;;;;;;;5063507;28;20048;-77
2021/03/10 09:42:18;;;;;;;52.67;30.88;;;;;;;;;;5060335;28;20036;-77
2021/03/10 09:44:45;;;;;;;47.58;28.77;;;;;;;;;;5051163;28;20028;-77
2021/03/10 09:47:14;;;;;;;43.90;26.70;;;;;;;;;;5056931;28;20020;-77
2021/03/10 09:49:46;;;;;;;42.35;25.35;;;;;;;;;;5061320;28;20032;-77
2021/03/10 09:52:12;;;;;;;42.92;26.10;;;;;;;;;;5060318;28;20020;-76
2021/03/10 09:54:48;;;;;;;46.53;27.38;;;;;;;;;;5069965;28;20096;-77
2021/03/10 09:57:23;;;;;;;44.78;26.80;;;;;;;;;;5066012;28;20025;-77
2021/03/10 09:59:49;;;;;;;44.85;26.92;;;;;;;;;;5063257;28;20017;-78
2021/03/10 10:02:15;;;;;;;47.72;29.35;;;;;;;;;;5058217;28;20032;-76
2021/03/10 10:04:44;;;;;;;43.53;27.20;;;;;;;;;;5063348;28;20030;-77
2021/03/10 10:07:12;;;;;;;42.17;26.85;;;;;;;;;;5059566;28;20061;-77
2021/03/10 10:09:38;;;;;;;41.22;25.13;;;;;;;;;;5058595;28;20144;-77
2021/03/10 10:12:04;;;;;;;42.45;26.92;;;;;;;;;;5055489;28;20029;-77
2021/03/10 10:14:30;;;;;;;44.55;26.95;;;;;;;;;;5066197;28;20020;-76
2021/03/10 10:16:55;;;;;;;45.85;28.13;;;;;;;;;;5061843;28;20495;-77
2021/03/10 10:19:21;;;;;;;47.65;27.70;;;;;;;;;;5058469;28;20036;-77
2021/03/10 10:21:48;;;;;;;46.60;27.83;;;;;;;;;;5057866;28;20929;-77
2021/03/10 10:24:17;;;;;;;42.70;27.25;;;;;;;;;;5065600;28;20024;-76
2021/03/10 10:26:43;;;;;;;43.97;27.83;;;;;;;;;;5059618;28;20029;-77
2021/03/10 10:29:08;;;;;;;41.92;27.00;;;;;;;;;;5064709;28;20482;-76
2021/03/10 10:31:37;;;;;;;42.08;26.25;;;;;;;;;;5057564;28;20036;-77
2021/03/10 10:34:03;;;;;;;43.85;26.35;;;;;;;;;;5064653;28;20036;-77
2021/03/10 10:36:28;;;;;;;38.40;24.75;;;;;;;;;;5066142;28;20119;-76
2021/03/10 10:38:54;;;;;;;38.50;23.20;;;;;;;;;;5059366;28;20029;-77
2021/03/10 10:41:20;;;;;;;40.63;24.52;;;;;;;;;;5054939;28;20077;-77
2021/03/10 10:43:45;;;;;;;37.13;22.77;;;;;;;;;;5057895;28;20107;-77
2021/03/10 10:48:29;;;;;;;37.13;22.92;;;;;;;;;;5074765;28;20361;-76
2021/03/10 10:50:55;;;;;;;33.33;21.38;;;;;;;;;;5071675;28;20179;-76
2021/03/10 10:53:21;;;;;;;35.53;21.52;;;;;;;;;;5060383;28;20024;-77
2021/03/10 10:55:46;;;;;;;35.47;23.33;;;;;;;;;;5061985;28;20104;-76
2021/03/10 10:58:12;;;;;;;35.90;22.10;;;;;;;;;;5060115;28;20028;-76
2021/03/10 11:00:38;;;;;;;36.47;22.83;;;;;;;;;;5058427;28;20534;-77
2021/03/10 11:03:04;;;;;;;36.22;22.92;;;;;;;;;;5047161;28;19923;-77
2021/03/10 11:05:29;;;;;;;30.20;19.23;;;;;;;;;;5055197;28;20033;-76
2021/03/10 11:07:55;;;;;;;32.25;18.52;;;;;;;;;;5079187;28;20024;-77
2021/03/10 11:10:21;;;;;;;31.17;19.95;;;;;;;;;;5070699;28;20536;-76
2021/03/10 11:12:46;;;;;;;29.58;18.65;;;;;;;;;;5064916;28;20622;-77
2021/03/10 11:15:12;;;;;;;30.95;18.13;;;;;;;;;;5069739;28;20514;-77
2021/03/10 11:17:38;;;;;;;28.60;18.20;;;;;;;;;;5065292;28;20110;-77
2021/03/10 11:20:04;;;;;;;31.38;19.30;;;;;;;;;;5059539;28;20121;-77
2021/03/10 11:22:30;;;;;;;22.70;15.00;;;;;;;;;;5059807;28;20037;-77
2021/03/10 11:24:55;;;;;;;27.63;17.17;;;;;;;;;;5054194;28;20044;-77
2021/03/10 11:27:22;;;;;;;25.77;16.50;;;;;;;;;;5047664;28;20033;-76
2021/03/10 11:29:48;;;;;;;26.98;17.92;;;;;;;;;;5046260;28;20021;-77
2021/03/10 11:32:14;;;;;;;22.63;14.88;;;;;;;;;;5051445;28;20641;-77
2021/03/10 11:34:39;;;;;;;26.17;14.38;;;;;;;;;;5071411;28;20035;-77
2021/03/10 11:37:07;;;;;;;23.90;15.07;;;;;;;;;;5059662;28;20032;-77
2021/03/10 11:39:32;;;;;;;24.95;14.13;;;;;;;;;;5043215;28;20572;-77
2021/03/10 11:41:58;;;;;;;24.20;14.15;;;;;;;;;;5062197;28;20028;-76
2021/03/10 11:44:24;;;;;;;24.38;14.73;;;;;;;;;;5072204;28;20020;-77
2021/03/10 11:46:50;;;;;;;23.10;14.48;;;;;;;;;;5048053;28;20116;-77
2021/03/10 11:49:15;;;;;;;20.50;13.30;;;;;;;;;;5050474;28;20025;-77
2021/03/10 11:51:41;;;;;;;19.60;12.80;;;;;;;;;;5069453;28;20384;-76
2021/03/10 11:54:08;;;;;;;18.02;12.18;;;;;;;;;;5061337;28;20021;-79
2021/03/10 11:56:33;;;;;;;24.75;13.77;;;;;;;;;;5065543;28;20044;-76
2021/03/10 11:58:59;;;;;;;19.90;11.70;;;;;;;;;;5036146;28;20045;-77
2021/03/10 12:03:45;;;;;;;19.63;13.52;;;;;;;;;;5056559;28;20366;-78
2021/03/10 12:06:11;;;;;;;18.60;11.85;;;;;;;;;;5049628;28;20037;-78
2021/03/10 12:08:36;;;;;;;18.05;12.40;;;;;;;;;;5050446;28;20032;-78
2021/03/10 12:11:02;;;;;;;19.77;12.32;;;;;;;;;;5047491;28;20107;-77
2021/03/10 12:13:28;;;;;;;21.75;13.15;;;;;;;;;;5048923;28;20032;-78
2021/03/10 12:15:57;;;;;;;20.10;11.60;;;;;;;;;;5055102;28;20052;-78
2021/03/10 12:18:23;;;;;;;17.67;11.88;;;;;;;;;;5054154;28;20500;-78
2021/03/10 12:20:49;;;;;;;15.52;10.57;;;;;;;;;;5050393;28;20029;-78
2021/03/10 12:23:18;;;;;;;21.23;12.63;;;;;;;;;;5050179;28;20021;-78
2021/03/10 12:25:44;;;;;;;26.38;15.35;;;;;;;;;;5046394;28;20033;-77
2021/03/10 12:28:10;;;;;;;26.40;15.38;;;;;;;;;;5047472;28;20150;-78
2021/03/10 12:30:35;;;;;;;19.50;12.55;;;;;;;;;;5047717;28;20033;-78
2021/03/10 12:33:01;;;;;;;20.50;11.52;;;;;;;;;;5046354;28;20409;-76
2021/03/10 12:35:28;;;;;;;18.17;11.10;;;;;;;;;;5047626;28;20370;-77
2021/03/10 12:37:53;;;;;;;16.05;10.57;;;;;;;;;;5045920;28;20052;-78
2021/03/10 12:40:19;;;;;;;18.60;11.73;;;;;;;;;;5048285;28;20036;-77
2021/03/10 12:42:45;;;;;;;18.73;10.27;;;;;;;;;;5047929;28;20490;-77
2021/03/10 12:45:11;;;;;;;17.63;11.02;;;;;;;;;;5045846;28;20442;-77
2021/03/10 12:47:36;;;;;;;16.48;10.93;;;;;;;;;;5047458;28;20037;-77
2021/03/10 12:50:02;;;;;;;16.30;10.52;;;;;;;;;;5048509;28;20111;-78
2021/03/10 12:52:28;;;;;;;17.95;10.13;;;;;;;;;;5050776;28;20552;-77
2021/03/10 12:54:53;;;;;;;16.73;11.23;;;;;;;;;;5043777;28;20498;-78
2021/03/10 12:57:19;;;;;;;16.23;10.43;;;;;;;;;;5044078;28;20000;-78
2021/03/10 12:59:45;;;;;;;19.70;11.38;;;;;;;;;;5044341;28;20031;-78
2021/03/10 13:02:11;;;;;;;17.25;10.80;;;;;;;;;;5045960;28;20032;-78
2021/03/10 13:04:36;;;;;;;15.10;10.00;;;;;;;;;;5045114;28;20079;-77
2021/03/10 13:07:02;;;;;;;18.35;11.18;;;;;;;;;;5054439;28;19992;-78
2021/03/10 13:11:46;;;;;;;19.75;10.43;;;;;;;;;;5079557;27;20727;-78
2021/03/10 13:14:11;;;;;;;17.88;10.45;;;;;;;;;;5067738;28;20039;-77
2021/03/10 13:16:37;;;;;;;17.15;11.02;;;;;;;;;;5069659;28;20384;-77
2021/03/10 13:19:03;;;;;;;19.15;11.63;;;;;;;;;;5063614;28;20025;-78
2021/03/10 13:21:30;;;;;;;17.45;11.05;;;;;;;;;;5065746;28;20025;-78
2021/03/10 13:23:56;;;;;;;16.60;10.27;;;;;;;;;;5064903;28;20025;-78
2021/03/10 13:26:21;;;;;;;18.50;11.88;;;;;;;;;;5059056;28;20492;-78
2021/03/10 13:28:48;;;;;;;18.08;10.98;;;;;;;;;;5068099;28;20102;-78
2021/03/10 13:31:14;;;;;;;19.08;10.75;;;;;;;;;;5074453;28;20012;-77
2021/03/10 13:33:40;;;;;;;24.40;13.52;;;;;;;;;;5079002;28;20032;-78
2021/03/10 13:36:05;;;;;;;17.27;11.85;;;;;;;;;;5068676;28;20013;-78
2021/03/10 13:38:31;;;;;;;16.20;10.38;;;;;;;;;;5079549;28;20075;-77
2021/03/10 13:40:57;;;;;;;17.83;12.40;;;;;;;;;;5073797;28;20023;-77
2021/03/10 13:43:22;;;;;;;25.77;12.95;;;;;;;;;;5072462;28;20031;-78
2021/03/10 13:45:48;;;;;;;27.05;13.32;;;;;;;;;;5072919;28;20039;-77
2021/03/10 13:48:14;;;;;;;17.40;12.02;;;;;;;;;;5074664;28;20119;-78
2021/03/10 13:50:41;;;;;;;19.85;12.18;;;;;;;;;;5078932;28;20190;-78
2021/03/10 13:53:07;;;;;;;17.27;11.32;;;;;;;;;;5070065;28;20365;-78
2021/03/10 13:55:33;;;;;;;27.58;14.50;;;;;;;;;;5071753;28;20020;-78
2021/03/10 13:57:59;;;;;;;28.30;16.85;;;;;;;;;;5078564;28;20517;-78
2021/03/10 14:00:25;;;;;;;30.40;17.05;;;;;;;;;;5078303;28;20069;-78
2021/03/10 14:02:50;;;;;;;22.50;15.95;;;;;;;;;;5071002;28;20404;-78
2021/03/10 14:05:16;;;;;;;23.85;15.20;;;;;;;;;;5077956;28;20077;-78
2021/03/10 14:07:42;;;;;;;24.65;15.73;;;;;;;;;;5078367;28;20025;-78
2021/03/10 14:10:08;;;;;;;31.23;16.55;;;;;;;;;;5077939;28;20119;-78
2021/03/10 14:12:35;;;;;;;26.85;16.73;;;;;;;;;;5071571;28;20024;-78
2021/03/10 14:15:00;;;;;;;25.02;16.08;;;;;;;;;;5077846;28;20012;-77
2021/03/10 14:19:44;;;;;;;27.15;15.80;;;;;;;;;;5113093;27;20755;-78
2021/03/10 14:22:10;;;;;;;26.80;16.27;;;;;;;;;;5117155;28;20114;-78
2021/03/10 14:24:36;;;;;;;27.33;16.38;;;;;;;;;;5117670;28;20023;-77
2021/03/10 14:27:01;;;;;;;23.13;14.77;;;;;;;;;;5116837;28;20080;-78
2021/03/10 14:29:27;;;;;;;24.65;16.58;;;;;;;;;;5114078;28;20093;-78
2021/03/10 14:31:53;;;;;;;30.40;16.23;;;;;;;;;;5109912;28;20018;-78
2021/03/10 14:34:18;;;;;;;29.80;17.70;;;;;;;;;;5107525;28;20016;-78
2021/03/10 14:36:44;;;;;;;23.90;15.25;;;;;;;;;;5096277;28;20094;-77
2021/03/10 14:39:10;;;;;;;24.10;14.68;;;;;;;;;;5103351;28;20443;-78
2021/03/10 14:41:37;;;;;;;26.00;14.45;;;;;;;;;;5109317;28;20027;-78
2021/03/10 14:44:03;;;;;;;26.88;15.43;;;;;;;;;;5110139;28;20051;-78
2021/03/10 14:46:28;;;;;;;20.70;13.65;;;;;;;;;;5112212;28;20372;-77
2021/03/10 14:48:54;;;;;;;27.67;14.82;;;;;;;;;;5110140;28;20038;-76
2021/03/10 14:51:20;;;;;;;25.55;14.68;;;;;;;;;;5115249;28;19912;-77
2021/03/10 14:53:45;;;;;;;22.52;14.38;;;;;;;;;;5110107;28;20019;-78
2021/03/10 14:56:11;;;;;;;21.92;14.45;;;;;;;;;;5109867;28;20028;-77
2021/03/10 14:58:37;;;;;;;19.70;13.27;;;;;;;;;;5120760;28;20019;-78
2021/03/10 15:01:03;;;;;;;26.30;13.48;;;;;;;;;;5107619;28;20467;-78
2021/03/10 15:03:29;;;;;;;23.08;13.18;;;;;;;;;;5119098;28;20023;-77
2021/03/10 15:05:55;;;;;;;23.15;14.13;;;;;;;;;;5110225;28;20020;-78
2021/03/10 15:08:20;;;;;;;23.73;13.95;;;;;;;;;;5118382;28;20122;-77
2021/03/10 15:10:46;;;;;;;23.33;14.07;;;;;;;;;;5113097;28;20031;-78
2021/03/10 15:13:12;;;;;;;20.75;12.98;;;;;;;;;;5109793;28;20024;-77
2021/03/10 15:15:37;;;;;;;19.05;12.48;;;;;;;;;;5103428;28;20489;-78
2021/03/10 15:18:03;;;;;;;21.90;13.75;;;;;;;;;;5108081;28;20070;-78
2021/03/10 15:20:29;;;;;;;19.83;12.02;;;;;;;;;;5098194;28;20032;-78
2021/03/10 15:22:55;;;;;;;20.73;12.32;;;;;;;;;;5105210;28;20083;-79
2021/03/10 15:25:21;;;;;;;19.70;12.40;;;;;;;;;;5099511;28;20030;-78
2021/03/10 15:27:46;;;;;;;19.77;12.35;;;;;;;;;;5105798;28;20015;-78
2021/03/10 15:30:13;;;;;;;18.48;12.10;;;;;;;;;;5091404;28;20043;-78
2021/03/10 15:32:39;;;;;;;17.23;11.30;;;;;;;;;;5094564;28;20024;-78
2021/03/10 15:35:05;;;;;;;19.70;11.57;;;;;;;;;;5088715;28;20349;-78
2021/03/10 15:37:31;;;;;;;21.13;12.15;;;;;;;;;;5087823;28;20537;-79
2021/03/10 15:39:57;;;;;;;20.40;11.82;;;;;;;;;;5089790;28;20029;-78
2021/03/10 15:44:42;;;;;;;18.85;12.32;;;;;;;;;;5110619;27;20380;-78
2021/03/10 15:47:08;;;;;;;19.73;12.15;;;;;;;;;;5099687;28;20028;-77
2021/03/10 15:49:33;;;;;;;18.92;11.52;;;;;;;;;;5093325;28;20024;-78
2021/03/10 15:52:00;;;;;;;18.00;10.88;;;;;;;;;;5091704;28;20032;-78
2021/03/10 15:54:25;;;;;;;19.25;11.70;;;;;;;;;;5091806;28;20028;-78
2021/03/10 15:56:51;;;;;;;17.20;10.77;;;;;;;;;;5095381;28;20028;-78
2021/03/10 15:59:17;;;;;;;18.30;11.70;;;;;;;;;;5096315;28;20074;-77
2021/03/10 16:01:42;;;;;;;17.83;9.88;;;;;;;;;;5088813;28;20047;-77
2021/03/10 16:04:08;;;;;;;18.25;10.77;;;;;;;;;;5094061;28;20103;-79
2021/03/10 16:06:34;;;;;;;18.20;10.25;;;;;;;;;;5092318;28;20032;-79
2021/03/10 16:08:59;;;;;;;21.65;11.02;;;;;;;;;;5094797;28;20111;-78
2021/03/10 16:11:25;;;;;;;15.48;10.57;;;;;;;;;;5092265;28;20115;-79
2021/03/10 16:13:53;;;;;;;21.58;11.63;;;;;;;;;;5096539;28;20080;-79
2021/03/10 16:16:18;;;;;;;18.73;11.73;;;;;;;;;;5093459;28;20074;-78
2021/03/10 16:18:44;;;;;;;17.48;11.23;;;;;;;;;;5094877;28;20035;-78
2021/03/10 16:23:29;;;;;;;18.77;12.30;;;;;;;;;;5112880;27;20343;-78
2021/03/10 16:25:54;;;;;;;20.60;12.55;;;;;;;;;;5113352;27;20085;-79
2021/03/10 16:28:20;;;;;;;27.90;16.60;;;;;;;;;;5112918;28;20430;-79
2021/03/10 16:30:46;;;;;;;23.45;15.25;;;;;;;;;;5108988;28;20019;-79
2021/03/10 16:33:12;;;;;;;54.90;31.42;;;;;;;;;;5108353;27;20047;-79
2021/03/10 16:35:38;;;;;;;32.85;22.33;;;;;;;;;;5100428;28;20024;-79
2021/03/10 17:01:45;;;;;;;15.85;9.52;;;;;;;;;;5090146;28;20136;-79
2021/03/10 17:07:14;;;;;;;20.27;11.00;;;;;;;;;;5082396;28;20030;-79
2021/03/10 17:12:52;;;;;;;35.55;18.42;;;;;;;;;;5085656;28;20121;-79
2021/03/10 17:24:28;;;;;;;17.33;9.93;;;;;;;;;;5084230;28;20026;-78
2021/03/10 17:45:52;;;;;;;17.17;10.45;;;;;;;;;;5081327;28;20035;-79
2021/03/10 17:51:21;;;;;;;21.45;10.23;;;;;;;;;;5073658;28;20034;-78
2021/03/10 18:06:02;;;;;;;53.05;24.85;;;;;;;;;;5061583;28;20144;-77
2021/03/10 18:08:28;;;;;;;36.38;17.58;;;;;;;;;;5052850;28;20040;-77
2021/03/10 18:10:54;;;;;;;27.98;13.98;;;;;;;;;;5069051;28;20016;-77
2021/03/10 18:13:20;;;;;;;18.48;10.45;;;;;;;;;;5060638;28;20035;-77
2021/03/10 18:15:45;;;;;;;21.17;11.20;;;;;;;;;;5070747;28;20038;-77
2021/03/10 18:18:11;;;;;;;15.23;9.20;;;;;;;;;;5068625;28;20029;-77
2021/03/10 18:20:37;;;;;;;19.02;11.65;;;;;;;;;;5062669;28;20029;-77
2021/03/10 18:23:03;;;;;;;21.48;12.02;;;;;;;;;;5062060;28;20020;-78
2021/03/10 18:25:28;;;;;;;15.63;8.32;;;;;;;;;;5065361;28;20039;-77
2021/03/10 18:27:54;;;;;;;13.15;8.30;;;;;;;;;;5070119;28;20020;-77
2021/03/10 18:30:20;;;;;;;16.05;9.57;;;;;;;;;;5067505;28;20040;-77
2021/03/10 18:32:48;;;;;;;13.40;8.90;;;;;;;;;;5071244;28;20484;-77
2021/03/10 18:35:14;;;;;;;15.13;9.13;;;;;;;;;;5060815;28;20080;-77
2021/03/10 18:37:42;;;;;;;12.25;7.47;;;;;;;;;;5068695;28;20747;-76
2021/03/10 18:40:07;;;;;;;13.77;7.85;;;;;;;;;;5066540;28;20082;-77
2021/03/10 18:42:33;;;;;;;17.42;8.35;;;;;;;;;;5061518;28;20481;-77
2021/03/10 18:44:59;;;;;;;14.50;7.68;;;;;;;;;;5055934;28;20040;-77
2021/03/10 18:47:24;;;;;;;10.75;6.30;;;;;;;;;;5062378;28;20021;-77
2021/03/10 18:49:50;;;;;;;13.73;7.15;;;;;;;;;;5069745;28;20031;-77
2021/03/10 18:52:16;;;;;;;9.82;5.53;;;;;;;;;;5070465;28;20038;-77
2021/03/10 18:54:42;;;;;;;12.32;6.45;;;;;;;;;;5069565;28;20028;-77
2021/03/10 18:57:07;;;;;;;8.52;4.95;;;;;;;;;;5072008;28;20097;-76
2021/03/10 18:59:33;;;;;;;12.07;5.97;;;;;;;;;;5066310;28;20021;-77
2021/03/10 19:01:59;;;;;;;9.77;5.35;;;;;;;;;;5067792;28;20103;-77
2021/03/10 19:04:24;;;;;;;10.40;6.22;;;;;;;;;;5062545;28;20468;-76
2021/03/10 19:06:50;;;;;;;11.77;5.35;;;;;;;;;;5058579;28;20025;-77
2021/03/10 19:09:15;;;;;;;8.40;4.93;;;;;;;;;;5060806;28;20021;-77
2021/03/10 19:11:41;;;;;;;11.10;6.07;;;;;;;;;;5062516;28;20038;-76
2021/03/10 19:14:07;;;;;;;8.70;5.90;;;;;;;;;;5060920;28;20942;-77
2021/03/10 19:16:32;;;;;;;9.95;5.60;;;;;;;;;;5063097;28;19916;-76
2021/03/10 19:21:17;;;;;;;11.73;5.50;;;;;;;;;;5050229;28;20424;-77
2021/03/10 19:23:42;;;;;;;9.48;5.20;;;;;;;;;;5034523;28;20551;-77
2021/03/10 19:26:10;;;;;;;9.25;5.50;;;;;;;;;;5038576;28;20022;-76
2021/03/10 19:28:36;;;;;;;11.30;5.22;;;;;;;;;;5032831;28;20026;-77
2021/03/10 19:31:01;;;;;;;10.18;5.22;;;;;;;;;;5034574;28;20446;-77
2021/03/10 19:33:27;;;;;;;10.70;5.95;;;;;;;;;;5036223;28;20462;-77
2021/03/10 19:35:53;;;;;;;9.75;5.30;;;;;;;;;;5040907;28;20805;-77
2021/03/10 19:38:18;;;;;;;10.48;6.25;;;;;;;;;;5038232;28;20044;-77
2021/03/10 19:40:44;;;;;;;10.57;6.18;;;;;;;;;;5042158;28;20024;-77
2021/03/10 19:43:10;;;;;;;10.68;6.03;;;;;;;;;;5043653;28;20037;-77
2021/03/10 19:45:35;;;;;;;12.52;6.53;;;;;;;;;;5032650;28;20033;-77
2021/03/10 19:50:19;;;;;;;8.70;5.80;;;;;;;;;;5081195;28;20360;-78
2021/03/10 19:52:45;;;;;;;9.93;5.10;;;;;;;;;;5073894;28;20030;-77
2021/03/10 19:55:15;;;;;;;8.80;5.25;;;;;;;;;;5071528;28;20476;-77
2021/03/10 19:57:41;;;;;;;9.70;6.25;;;;;;;;;;5063953;28;20076;-77
2021/03/10 20:00:07;;;;;;;13.32;5.93;;;;;;;;;;5070706;28;20024;-77
2021/03/10 20:02:33;;;;;;;14.77;7.35;;;;;;;;;;5067160;28;20021;-77
2021/03/10 20:04:59;;;;;;;14.20;8.00;;;;;;;;;;5068464;28;21259;-76
2021/03/10 20:07:34;;;;;;;13.95;6.90;;;;;;;;;;5059149;28;20044;-77
2021/03/10 20:10:00;;;;;;;11.82;6.75;;;;;;;;;;5062402;28;20099;-77
2021/03/10 20:12:25;;;;;;;10.63;6.35;;;;;;;;;;5067967;28;20028;-77
2021/03/10 20:14:51;;;;;;;14.95;7.43;;;;;;;;;;5067298;28;20017;-77
2021/03/10 20:17:17;;;;;;;14.05;9.32;;;;;;;;;;5072832;28;20025;-77
2021/03/10 20:19:43;;;;;;;13.50;8.07;;;;;;;;;;5045874;28;20039;-77
2021/03/10 20:22:09;;;;;;;13.35;8.80;;;;;;;;;;5065662;28;20037;-77
2021/03/10 20:24:35;;;;;;;13.77;8.63;;;;;;;;;;5063820;28;20082;-77
2021/03/10 20:27:00;;;;;;;14.65;8.10;;;;;;;;;;5068960;28;20404;-77
2021/03/10 20:29:26;;;;;;;13.57;7.38;;;;;;;;;;5074546;28;20075;-78
2021/03/10 20:31:52;;;;;;;19.17;11.52;;;;;;;;;;5074938;28;20021;-77
2021/03/10 20:34:18;;;;;;;17.10;10.18;;;;;;;;;;5064754;28;20067;-77
2021/03/10 20:39:02;;;;;;;15.00;9.85;;;;;;;;;;5104489;27;20404;-77
2021/03/10 20:41:28;;;;;;;12.88;8.52;;;;;;;;;;5097174;28;20056;-76
2021/03/10 20:43:53;;;;;;;15.10;9.23;;;;;;;;;;5080376;28;20043;-77
2021/03/10 20:46:19;;;;;;;14.57;9.30;;;;;;;;;;5087638;28;20100;-77
2021/03/10 20:48:45;;;;;;;15.77;9.40;;;;;;;;;;5098219;28;20443;-77
2021/03/10 20:51:11;;;;;;;19.85;11.63;;;;;;;;;;5089570;28;20034;-77
2021/03/10 20:53:42;;;;;;;23.65;13.13;;;;;;;;;;5090389;28;20031;-77
2021/03/10 20:56:09;;;;;;;27.20;14.40;;;;;;;;;;5092649;28;20040;-77
2021/03/10 20:58:34;;;;;;;25.48;13.70;;;;;;;;;;5092160;28;20159;-77
2021/03/10 21:01:00;;;;;;;24.92;14.88;;;;;;;;;;5089188;28;20032;-77
2021/03/10 21:03:26;;;;;;;22.27;13.63;;;;;;;;;;5080459;28;20143;-77
2021/03/10 21:05:52;;;;;;;24.23;13.40;;;;;;;;;;5085663;28;20399;-77
2021/03/10 21:08:17;;;;;;;20.02;11.63;;;;;;;;;;5083081;28;20016;-77
2021/03/10 21:10:43;;;;;;;21.67;10.70;;;;;;;;;;5083904;28;20028;-77
2021/03/10 21:13:10;;;;;;;15.18;8.30;;;;;;;;;;5087179;28;20047;-77
2021/03/10 21:15:36;;;;;;;16.55;8.20;;;;;;;;;;5085797;28;20044;-77
2021/03/10 21:18:02;;;;;;;27.38;9.10;;;;;;;;;;5085357;28;20034;-77
2021/03/10 21:20:28;;;;;;;12.70;8.48;;;;;;;;;;5085835;28;20411;-77
2021/03/10 21:22:53;;;;;;;13.55;7.85;;;;;;;;;;5090564;28;20020;-77
2021/03/10 21:25:19;;;;;;;10.07;6.32;;;;;;;;;;5089102;28;20109;-76
2021/03/10 21:27:46;;;;;;;11.13;6.07;;;;;;;;;;5095236;28;20054;-77
2021/03/10 21:30:12;;;;;;;9.63;5.85;;;;;;;;;;5090307;28;20028;-77
2021/03/10 21:32:39;;;;;;;11.68;6.60;;;;;;;;;;5090014;28;20028;-76
2021/03/10 21:35:05;;;;;;;11.02;6.15;;;;;;;;;;5093978;28;20027;-77
2021/03/10 21:37:31;;;;;;;11.90;7.07;;;;;;;;;;5088902;28;20024;-76
2021/03/10 21:39:57;;;;;;;13.73;6.50;;;;;;;;;;5089045;28;20566;-77
2021/03/10 21:42:22;;;;;;;12.07;6.07;;;;;;;;;;5087650;28;20366;-76